sensor_id;sensor_type;location;lat;lon;timestamp;pressure;altitude;pressure_sealevel;temperature;humidity
54870;BME280;40756;-37.950;145.008;2023-08-30T00:00:49;100982.22;;;11.87;69.90
54870;BME280;40756;-37.950;145.008;2023-08-30T00:03:20;100983.60;;;12.56;69.49
54870;BME280;40756;-37.950;145.008;2023-08-30T00:05:49;100987.60;;;12.60;68.69
54870;BME280;40756;-37.950;145.008;2023-08-30T00:08:19;100989.80;;;12.38;69.76
54870;BME280;40756;-37.950;145.008;2023-08-30T00:10:48;100993.88;;;12.33;69.65
54870;BME280;40756;-37.950;145.008;2023-08-30T00:13:19;100991.52;;;12.68;68.34
54870;BME280;40756;-37.950;145.008;2023-08-30T00:15:49;100991.83;;;13.26;67.11
54870;BME280;40756;-37.950;145.008;2023-08-30T00:18:18;100992.34;;;13.36;65.64
54870;BME280;40756;-37.950;145.008;2023-08-30T00:20:48;100989.74;;;13.45;65.88
54870;BME280;40756;-37.950;145.008;2023-08-30T00:23:18;100991.26;;;13.52;64.20
54870;BME280;40756;-37.950;145.008;2023-08-30T00:25:47;101001.23;;;13.49;64.12
54870;BME280;40756;-37.950;145.008;2023-08-30T00:28:17;101005.31;;;13.23;64.85
54870;BME280;40756;-37.950;145.008;2023-08-30T00:30:46;101008.43;;;13.22;64.30
54870;BME280;40756;-37.950;145.008;2023-08-30T00:33:21;101013.19;;;13.53;64.19
54870;BME280;40756;-37.950;145.008;2023-08-30T00:35:57;101015.18;;;13.30;64.03
54870;BME280;40756;-37.950;145.008;2023-08-30T00:38:28;101018.76;;;12.67;65.99
54870;BME280;40756;-37.950;145.008;2023-08-30T00:40:58;101021.68;;;12.30;67.77
54870;BME280;40756;-37.950;145.008;2023-08-30T00:43:28;101022.42;;;12.87;65.83
54870;BME280;40756;-37.950;145.008;2023-08-30T00:45:58;101027.66;;;13.55;63.00
54870;BME280;40756;-37.950;145.008;2023-08-30T00:48:28;101024.39;;;13.66;63.87
54870;BME280;40756;-37.950;145.008;2023-08-30T00:50:58;101029.00;;;13.73;63.49
54870;BME280;40756;-37.950;145.008;2023-08-30T00:53:28;101029.69;;;13.50;63.72
54870;BME280;40756;-37.950;145.008;2023-08-30T00:55:57;101032.98;;;12.90;63.22
54870;BME280;40756;-37.950;145.008;2023-08-30T00:58:27;101027.90;;;13.99;62.59
54870;BME280;40756;-37.950;145.008;2023-08-30T01:00:57;101031.22;;;13.74;62.76
54870;BME280;40756;-37.950;145.008;2023-08-30T01:03:28;101035.02;;;12.58;64.52
54870;BME280;40756;-37.950;145.008;2023-08-30T01:05:57;101030.32;;;13.76;62.78
54870;BME280;40756;-37.950;145.008;2023-08-30T01:08:27;101026.63;;;14.34;62.29
54870;BME280;40756;-37.950;145.008;2023-08-30T01:11:02;101025.13;;;13.74;62.47
54870;BME280;40756;-37.950;145.008;2023-08-30T01:13:40;101023.63;;;14.83;60.68
54870;BME280;40756;-37.950;145.008;2023-08-30T01:16:12;101026.49;;;14.56;61.30
54870;BME280;40756;-37.950;145.008;2023-08-30T01:18:43;101024.43;;;14.31;61.52
54870;BME280;40756;-37.950;145.008;2023-08-30T01:21:24;101029.32;;;14.02;61.79
54870;BME280;40756;-37.950;145.008;2023-08-30T01:23:59;101033.48;;;14.32;59.04
54870;BME280;40756;-37.950;145.008;2023-08-30T01:26:41;101037.05;;;14.70;59.08
54870;BME280;40756;-37.950;145.008;2023-08-30T01:29:13;101039.17;;;13.84;59.48
54870;BME280;40756;-37.950;145.008;2023-08-30T01:31:47;101038.23;;;13.49;60.02
54870;BME280;40756;-37.950;145.008;2023-08-30T01:34:17;101037.73;;;12.11;62.23
54870;BME280;40756;-37.950;145.008;2023-08-30T01:36:47;101036.70;;;13.66;60.88
54870;BME280;40756;-37.950;145.008;2023-08-30T01:39:17;101034.26;;;13.85;59.63
54870;BME280;40756;-37.950;145.008;2023-08-30T01:41:48;101033.99;;;14.64;57.86
54870;BME280;40756;-37.950;145.008;2023-08-30T01:44:18;101037.29;;;14.36;58.63
54870;BME280;40756;-37.950;145.008;2023-08-30T01:46:48;101041.09;;;14.38;58.80
54870;BME280;40756;-37.950;145.008;2023-08-30T01:49:19;101039.25;;;14.48;58.49
54870;BME280;40756;-37.950;145.008;2023-08-30T01:51:49;101042.78;;;13.57;61.01
54870;BME280;40756;-37.950;145.008;2023-08-30T01:54:20;101037.98;;;14.04;60.47
54870;BME280;40756;-37.950;145.008;2023-08-30T01:56:50;101043.30;;;13.63;60.04
54870;BME280;40756;-37.950;145.008;2023-08-30T01:59:19;101039.61;;;14.41;59.55
54870;BME280;40756;-37.950;145.008;2023-08-30T02:01:49;101039.88;;;15.19;58.23
54870;BME280;40756;-37.950;145.008;2023-08-30T02:04:19;101041.03;;;15.04;55.33
54870;BME280;40756;-37.950;145.008;2023-08-30T02:06:54;101045.29;;;14.74;54.35
54870;BME280;40756;-37.950;145.008;2023-08-30T02:09:30;101039.62;;;15.19;54.17
54870;BME280;40756;-37.950;145.008;2023-08-30T02:12:07;101048.96;;;13.43;56.42
54870;BME280;40756;-37.950;145.008;2023-08-30T02:14:41;101056.29;;;12.81;57.52
54870;BME280;40756;-37.950;145.008;2023-08-30T02:17:15;101051.64;;;13.56;57.97
54870;BME280;40756;-37.950;145.008;2023-08-30T02:19:47;101050.22;;;13.11;58.70
54870;BME280;40756;-37.950;145.008;2023-08-30T02:22:16;101044.38;;;13.92;57.70
54870;BME280;40756;-37.950;145.008;2023-08-30T02:24:46;101040.20;;;14.12;56.66
54870;BME280;40756;-37.950;145.008;2023-08-30T02:27:15;101043.00;;;13.94;56.30
54870;BME280;40756;-37.950;145.008;2023-08-30T02:29:45;101041.91;;;14.56;54.06
54870;BME280;40756;-37.950;145.008;2023-08-30T02:32:15;101044.03;;;13.35;55.37
54870;BME280;40756;-37.950;145.008;2023-08-30T02:34:44;101043.93;;;14.45;53.52
54870;BME280;40756;-37.950;145.008;2023-08-30T02:37:14;101042.95;;;14.36;53.67
54870;BME280;40756;-37.950;145.008;2023-08-30T02:39:44;101040.72;;;14.31;52.12
54870;BME280;40756;-37.950;145.008;2023-08-30T02:42:13;101042.31;;;14.67;52.41
54870;BME280;40756;-37.950;145.008;2023-08-30T02:44:42;101043.42;;;13.01;54.85
54870;BME280;40756;-37.950;145.008;2023-08-30T02:47:12;101043.51;;;15.00;53.23
54870;BME280;40756;-37.950;145.008;2023-08-30T02:49:42;101041.59;;;13.66;54.09
54870;BME280;40756;-37.950;145.008;2023-08-30T02:52:11;101041.10;;;14.64;51.95
54870;BME280;40756;-37.950;145.008;2023-08-30T02:54:41;101044.14;;;14.47;50.91
54870;BME280;40756;-37.950;145.008;2023-08-30T02:57:11;101038.60;;;14.26;51.48
54870;BME280;40756;-37.950;145.008;2023-08-30T02:59:40;101039.98;;;14.92;51.06
54870;BME280;40756;-37.950;145.008;2023-08-30T03:02:10;101041.96;;;14.56;49.84
54870;BME280;40756;-37.950;145.008;2023-08-30T03:04:39;101038.98;;;15.45;49.32
54870;BME280;40756;-37.950;145.008;2023-08-30T03:07:09;101039.03;;;15.14;48.03
54870;BME280;40756;-37.950;145.008;2023-08-30T03:09:38;101036.49;;;15.06;48.35
54870;BME280;40756;-37.950;145.008;2023-08-30T03:12:08;101032.20;;;14.52;50.18
54870;BME280;40756;-37.950;145.008;2023-08-30T03:14:38;101033.30;;;13.45;52.32
54870;BME280;40756;-37.950;145.008;2023-08-30T03:17:08;101028.42;;;13.87;51.70
54870;BME280;40756;-37.950;145.008;2023-08-30T03:19:38;101030.37;;;14.26;51.32
54870;BME280;40756;-37.950;145.008;2023-08-30T03:22:08;101035.31;;;13.41;53.56
54870;BME280;40756;-37.950;145.008;2023-08-30T03:24:38;101035.42;;;14.10;53.41
54870;BME280;40756;-37.950;145.008;2023-08-30T03:27:08;101035.77;;;13.79;54.04
54870;BME280;40756;-37.950;145.008;2023-08-30T03:29:37;101036.27;;;13.66;54.43
54870;BME280;40756;-37.950;145.008;2023-08-30T03:32:07;101039.27;;;13.27;53.57
54870;BME280;40756;-37.950;145.008;2023-08-30T03:34:36;101035.80;;;14.41;51.36
54870;BME280;40756;-37.950;145.008;2023-08-30T03:37:06;101038.80;;;13.05;52.90
54870;BME280;40756;-37.950;145.008;2023-08-30T03:39:36;101038.44;;;13.68;52.59
54870;BME280;40756;-37.950;145.008;2023-08-30T03:42:06;101043.64;;;13.41;53.76
54870;BME280;40756;-37.950;145.008;2023-08-30T03:44:35;101040.44;;;13.41;53.21
54870;BME280;40756;-37.950;145.008;2023-08-30T03:47:05;101040.26;;;13.18;52.38
54870;BME280;40756;-37.950;145.008;2023-08-30T03:49:34;101039.34;;;13.64;51.63
54870;BME280;40756;-37.950;145.008;2023-08-30T03:52:04;101041.84;;;13.47;51.76
54870;BME280;40756;-37.950;145.008;2023-08-30T03:54:33;101038.99;;;14.56;49.04
54870;BME280;40756;-37.950;145.008;2023-08-30T03:57:03;101042.50;;;14.24;49.93
54870;BME280;40756;-37.950;145.008;2023-08-30T03:59:33;101045.31;;;14.13;50.87
54870;BME280;40756;-37.950;145.008;2023-08-30T04:02:03;101043.75;;;13.90;51.23
54870;BME280;40756;-37.950;145.008;2023-08-30T04:04:32;101047.02;;;14.20;50.31
54870;BME280;40756;-37.950;145.008;2023-08-30T04:07:02;101051.45;;;13.96;49.66
54870;BME280;40756;-37.950;145.008;2023-08-30T04:09:31;101056.40;;;14.75;48.29
54870;BME280;40756;-37.950;145.008;2023-08-30T04:12:01;101062.06;;;13.87;50.00
54870;BME280;40756;-37.950;145.008;2023-08-30T04:14:31;101063.33;;;13.64;50.03
54870;BME280;40756;-37.950;145.008;2023-08-30T04:17:00;101066.69;;;13.95;49.55
54870;BME280;40756;-37.950;145.008;2023-08-30T04:19:31;101071.25;;;15.02;48.41
54870;BME280;40756;-37.950;145.008;2023-08-30T04:22:01;101069.81;;;14.27;48.94
54870;BME280;40756;-37.950;145.008;2023-08-30T04:24:31;101070.74;;;14.33;49.29
54870;BME280;40756;-37.950;145.008;2023-08-30T04:27:00;101070.84;;;14.69;50.58
54870;BME280;40756;-37.950;145.008;2023-08-30T04:29:30;101067.43;;;15.18;50.01
54870;BME280;40756;-37.950;145.008;2023-08-30T04:32:00;101070.91;;;14.16;51.83
54870;BME280;40756;-37.950;145.008;2023-08-30T04:34:29;101073.61;;;14.34;51.16
54870;BME280;40756;-37.950;145.008;2023-08-30T04:36:59;101073.48;;;13.87;51.43
54870;BME280;40756;-37.950;145.008;2023-08-30T04:39:29;101076.50;;;14.53;50.31
54870;BME280;40756;-37.950;145.008;2023-08-30T04:41:58;101073.65;;;14.86;49.49
54870;BME280;40756;-37.950;145.008;2023-08-30T04:44:28;101075.06;;;14.28;51.35
54870;BME280;40756;-37.950;145.008;2023-08-30T04:46:58;101083.30;;;14.54;48.54
54870;BME280;40756;-37.950;145.008;2023-08-30T04:49:27;101083.36;;;14.63;48.72
54870;BME280;40756;-37.950;145.008;2023-08-30T04:51:57;101086.81;;;14.65;50.87
54870;BME280;40756;-37.950;145.008;2023-08-30T04:54:26;101087.06;;;14.49;49.58
54870;BME280;40756;-37.950;145.008;2023-08-30T04:56:56;101090.43;;;14.58;49.40
54870;BME280;40756;-37.950;145.008;2023-08-30T04:59:26;101094.13;;;14.09;49.82
54870;BME280;40756;-37.950;145.008;2023-08-30T05:01:55;101096.45;;;14.79;50.37
54870;BME280;40756;-37.950;145.008;2023-08-30T05:04:26;101099.01;;;15.21;49.70
54870;BME280;40756;-37.950;145.008;2023-08-30T05:06:55;101099.62;;;15.63;49.47
54870;BME280;40756;-37.950;145.008;2023-08-30T05:09:25;101098.74;;;15.16;49.41
54870;BME280;40756;-37.950;145.008;2023-08-30T05:11:55;101100.18;;;15.52;48.05
54870;BME280;40756;-37.950;145.008;2023-08-30T05:14:24;101101.14;;;15.65;47.30
54870;BME280;40756;-37.950;145.008;2023-08-30T05:16:54;101105.67;;;14.29;48.53
54870;BME280;40756;-37.950;145.008;2023-08-30T05:19:24;101102.21;;;14.41;48.77
54870;BME280;40756;-37.950;145.008;2023-08-30T05:21:54;101101.01;;;14.95;47.42
54870;BME280;40756;-37.950;145.008;2023-08-30T05:24:24;101099.63;;;15.19;47.50
54870;BME280;40756;-37.950;145.008;2023-08-30T05:26:54;101106.20;;;14.65;48.40
54870;BME280;40756;-37.950;145.008;2023-08-30T05:29:24;101109.27;;;15.24;47.75
54870;BME280;40756;-37.950;145.008;2023-08-30T05:31:53;101106.47;;;14.50;48.58
54870;BME280;40756;-37.950;145.008;2023-08-30T05:34:23;101107.02;;;15.00;48.67
54870;BME280;40756;-37.950;145.008;2023-08-30T05:36:53;101110.05;;;14.78;48.28
54870;BME280;40756;-37.950;145.008;2023-08-30T05:39:22;101110.77;;;13.88;50.12
54870;BME280;40756;-37.950;145.008;2023-08-30T05:41:52;101106.02;;;14.17;49.60
54870;BME280;40756;-37.950;145.008;2023-08-30T05:44:22;101110.76;;;15.01;48.24
54870;BME280;40756;-37.950;145.008;2023-08-30T05:46:51;101108.77;;;14.81;48.11
54870;BME280;40756;-37.950;145.008;2023-08-30T05:49:21;101113.36;;;15.23;47.66
54870;BME280;40756;-37.950;145.008;2023-08-30T05:51:50;101110.06;;;14.30;49.23
54870;BME280;40756;-37.950;145.008;2023-08-30T05:54:55;101112.52;;;15.69;47.09
54870;BME280;40756;-37.950;145.008;2023-08-30T05:58:26;101114.84;;;15.73;45.88
54870;BME280;40756;-37.950;145.008;2023-08-30T06:00:55;101118.15;;;15.57;46.28
54870;BME280;40756;-37.950;145.008;2023-08-30T06:03:25;101126.06;;;14.73;47.52
54870;BME280;40756;-37.950;145.008;2023-08-30T06:05:54;101122.72;;;15.47;45.52
54870;BME280;40756;-37.950;145.008;2023-08-30T06:08:24;101129.67;;;15.23;46.68
54870;BME280;40756;-37.950;145.008;2023-08-30T06:10:54;101132.98;;;14.27;48.68
54870;BME280;40756;-37.950;145.008;2023-08-30T06:13:23;101135.34;;;13.90;49.62
54870;BME280;40756;-37.950;145.008;2023-08-30T06:16:53;101141.36;;;15.37;49.50
54870;BME280;40756;-37.950;145.008;2023-08-30T06:19:24;101144.42;;;14.33;48.91
54870;BME280;40756;-37.950;145.008;2023-08-30T06:21:53;101143.95;;;13.34;51.25
54870;BME280;40756;-37.950;145.008;2023-08-30T06:24:24;101143.38;;;13.28;51.79
54870;BME280;40756;-37.950;145.008;2023-08-30T06:26:54;101145.87;;;14.19;50.66
54870;BME280;40756;-37.950;145.008;2023-08-30T06:29:23;101147.37;;;14.44;49.62
54870;BME280;40756;-37.950;145.008;2023-08-30T06:31:53;101152.26;;;13.41;51.48
54870;BME280;40756;-37.950;145.008;2023-08-30T06:34:22;101157.33;;;13.35;50.52
54870;BME280;40756;-37.950;145.008;2023-08-30T06:37:02;101159.13;;;14.16;49.20
54870;BME280;40756;-37.950;145.008;2023-08-30T06:39:35;101152.28;;;14.46;49.37
54870;BME280;40756;-37.950;145.008;2023-08-30T06:42:05;101163.22;;;13.10;50.38
54870;BME280;40756;-37.950;145.008;2023-08-30T06:44:34;101161.32;;;14.29;49.22
54870;BME280;40756;-37.950;145.008;2023-08-30T06:51:29;101167.74;;;13.54;52.82
54870;BME280;40756;-37.950;145.008;2023-08-30T06:54:59;101166.63;;;13.96;52.37
54870;BME280;40756;-37.950;145.008;2023-08-30T07:20:40;101199.84;;;15.24;48.09
54870;BME280;40756;-37.950;145.008;2023-08-30T07:23:09;101197.96;;;12.90;46.75
54870;BME280;40756;-37.950;145.008;2023-08-30T07:25:38;101208.27;;;11.99;49.29
54870;BME280;40756;-37.950;145.008;2023-08-30T07:28:08;101216.19;;;12.77;51.09
54870;BME280;40756;-37.950;145.008;2023-08-30T07:30:37;101221.27;;;12.45;52.54
54870;BME280;40756;-37.950;145.008;2023-08-30T07:33:07;101221.25;;;11.97;56.18
54870;BME280;40756;-37.950;145.008;2023-08-30T07:35:36;101212.95;;;13.47;56.62
54870;BME280;40756;-37.950;145.008;2023-08-30T07:38:06;101210.85;;;15.13;53.80
54870;BME280;40756;-37.950;145.008;2023-08-30T07:40:36;101226.14;;;13.09;54.77
54870;BME280;40756;-37.950;145.008;2023-08-30T07:43:05;101227.02;;;13.35;55.18
54870;BME280;40756;-37.950;145.008;2023-08-30T07:45:35;101238.54;;;12.03;58.87
54870;BME280;40756;-37.950;145.008;2023-08-30T07:48:05;101236.44;;;12.52;57.87
54870;BME280;40756;-37.950;145.008;2023-08-30T07:50:35;101238.79;;;13.20;56.98
54870;BME280;40756;-37.950;145.008;2023-08-30T07:53:05;101238.97;;;12.17;58.29
54870;BME280;40756;-37.950;145.008;2023-08-30T07:55:35;101242.62;;;13.06;56.72
54870;BME280;40756;-37.950;145.008;2023-08-30T07:58:05;101249.29;;;12.53;56.74
54870;BME280;40756;-37.950;145.008;2023-08-30T08:00:35;101253.99;;;11.61;57.77
54870;BME280;40756;-37.950;145.008;2023-08-30T08:03:05;101256.19;;;13.22;55.45
54870;BME280;40756;-37.950;145.008;2023-08-30T08:05:35;101260.13;;;13.56;54.57
54870;BME280;40756;-37.950;145.008;2023-08-30T08:08:05;101267.20;;;12.45;54.68
54870;BME280;40756;-37.950;145.008;2023-08-30T08:10:34;101274.77;;;12.22;55.73
54870;BME280;40756;-37.950;145.008;2023-08-30T08:13:04;101274.54;;;11.88;56.24
54870;BME280;40756;-37.950;145.008;2023-08-30T08:15:34;101287.66;;;11.42;57.34
54870;BME280;40756;-37.950;145.008;2023-08-30T08:18:04;101285.32;;;11.90;57.03
54870;BME280;40756;-37.950;145.008;2023-08-30T08:20:33;101289.33;;;11.18;58.74
54870;BME280;40756;-37.950;145.008;2023-08-30T08:23:03;101290.48;;;11.85;57.03
54870;BME280;40756;-37.950;145.008;2023-08-30T08:25:33;101291.39;;;11.98;56.47
54870;BME280;40756;-37.950;145.008;2023-08-30T08:28:04;101297.82;;;11.84;57.11
54870;BME280;40756;-37.950;145.008;2023-08-30T08:30:33;101298.01;;;11.83;57.73
54870;BME280;40756;-37.950;145.008;2023-08-30T08:33:03;101300.72;;;11.05;59.19
54870;BME280;40756;-37.950;145.008;2023-08-30T08:35:32;101298.68;;;12.20;56.39
54870;BME280;40756;-37.950;145.008;2023-08-30T08:38:02;101299.31;;;12.32;57.16
54870;BME280;40756;-37.950;145.008;2023-08-30T08:40:32;101303.19;;;11.30;57.26
54870;BME280;40756;-37.950;145.008;2023-08-30T08:43:06;101301.71;;;12.35;56.75
54870;BME280;40756;-37.950;145.008;2023-08-30T08:45:36;101303.01;;;11.78;56.93
54870;BME280;40756;-37.950;145.008;2023-08-30T08:48:06;101303.83;;;11.72;57.39
54870;BME280;40756;-37.950;145.008;2023-08-30T08:50:36;101310.73;;;12.68;56.77
54870;BME280;40756;-37.950;145.008;2023-08-30T08:53:06;101310.55;;;12.12;55.89
54870;BME280;40756;-37.950;145.008;2023-08-30T08:55:36;101311.42;;;12.21;55.79
54870;BME280;40756;-37.950;145.008;2023-08-30T08:58:06;101314.42;;;12.37;54.93
54870;BME280;40756;-37.950;145.008;2023-08-30T09:00:36;101318.93;;;12.17;55.40
54870;BME280;40756;-37.950;145.008;2023-08-30T09:03:07;101321.82;;;11.35;57.01
54870;BME280;40756;-37.950;145.008;2023-08-30T09:05:38;101327.08;;;11.97;56.29
54870;BME280;40756;-37.950;145.008;2023-08-30T09:08:11;101328.80;;;12.93;54.65
54870;BME280;40756;-37.950;145.008;2023-08-30T09:10:40;101331.99;;;13.12;53.71
54870;BME280;40756;-37.950;145.008;2023-08-30T09:13:10;101336.15;;;13.07;53.85
54870;BME280;40756;-37.950;145.008;2023-08-30T09:15:40;101335.64;;;13.46;52.65
54870;BME280;40756;-37.950;145.008;2023-08-30T09:18:16;101340.49;;;13.72;52.17
54870;BME280;40756;-37.950;145.008;2023-08-30T09:20:46;101342.89;;;13.32;51.47
54870;BME280;40756;-37.950;145.008;2023-08-30T09:23:20;101342.55;;;12.45;51.71
54870;BME280;40756;-37.950;145.008;2023-08-30T09:25:56;101349.18;;;11.73;52.32
54870;BME280;40756;-37.950;145.008;2023-08-30T09:28:28;101354.37;;;12.26;52.32
54870;BME280;40756;-37.950;145.008;2023-08-30T09:30:58;101363.23;;;11.51;53.24
54870;BME280;40756;-37.950;145.008;2023-08-30T09:33:33;101368.30;;;12.14;53.05
54870;BME280;40756;-37.950;145.008;2023-08-30T09:36:09;101369.87;;;12.80;52.20
54870;BME280;40756;-37.950;145.008;2023-08-30T09:38:39;101376.35;;;12.03;53.41
54870;BME280;40756;-37.950;145.008;2023-08-30T09:41:08;101380.91;;;12.56;52.75
54870;BME280;40756;-37.950;145.008;2023-08-30T09:43:43;101382.74;;;12.14;51.62
54870;BME280;40756;-37.950;145.008;2023-08-30T09:46:13;101383.31;;;11.73;51.70
54870;BME280;40756;-37.950;145.008;2023-08-30T09:48:42;101388.45;;;11.58;52.01
54870;BME280;40756;-37.950;145.008;2023-08-30T09:51:12;101389.30;;;11.99;51.56
54870;BME280;40756;-37.950;145.008;2023-08-30T09:53:44;101390.16;;;12.42;50.84
54870;BME280;40756;-37.950;145.008;2023-08-30T09:56:15;101398.74;;;11.93;52.23
54870;BME280;40756;-37.950;145.008;2023-08-30T09:58:46;101407.73;;;11.46;52.56
54870;BME280;40756;-37.950;145.008;2023-08-30T10:01:16;101408.02;;;11.82;52.45
54870;BME280;40756;-37.950;145.008;2023-08-30T10:03:45;101409.54;;;12.44;51.81
54870;BME280;40756;-37.950;145.008;2023-08-30T10:06:15;101413.29;;;12.32;51.71
54870;BME280;40756;-37.950;145.008;2023-08-30T10:08:46;101413.30;;;12.47;51.98
54870;BME280;40756;-37.950;145.008;2023-08-30T10:11:19;101417.61;;;11.31;53.99
54870;BME280;40756;-37.950;145.008;2023-08-30T10:13:49;101416.65;;;11.41;54.58
54870;BME280;40756;-37.950;145.008;2023-08-30T10:16:22;101421.04;;;11.10;54.24
54870;BME280;40756;-37.950;145.008;2023-08-30T10:18:54;101428.90;;;11.03;54.09
54870;BME280;40756;-37.950;145.008;2023-08-30T10:21:23;101430.88;;;11.18;54.07
54870;BME280;40756;-37.950;145.008;2023-08-30T10:23:54;101432.95;;;11.48;54.09
54870;BME280;40756;-37.950;145.008;2023-08-30T10:26:26;101433.60;;;11.31;54.85
54870;BME280;40756;-37.950;145.008;2023-08-30T10:28:58;101433.72;;;11.31;55.19
54870;BME280;40756;-37.950;145.008;2023-08-30T10:31:29;101438.31;;;11.18;56.24
54870;BME280;40756;-37.950;145.008;2023-08-30T10:33:58;101433.90;;;11.75;54.77
54870;BME280;40756;-37.950;145.008;2023-08-30T10:36:28;101431.61;;;11.63;55.46
54870;BME280;40756;-37.950;145.008;2023-08-30T10:38:57;101438.62;;;11.14;55.85
54870;BME280;40756;-37.950;145.008;2023-08-30T10:41:27;101439.60;;;11.53;54.70
54870;BME280;40756;-37.950;145.008;2023-08-30T10:43:57;101437.76;;;11.68;53.83
54870;BME280;40756;-37.950;145.008;2023-08-30T10:46:34;101439.30;;;11.14;53.78
54870;BME280;40756;-37.950;145.008;2023-08-30T10:49:14;101444.68;;;11.21;55.22
54870;BME280;40756;-37.950;145.008;2023-08-30T10:51:43;101442.18;;;11.55;54.92
54870;BME280;40756;-37.950;145.008;2023-08-30T10:54:14;101446.39;;;10.43;57.26
54870;BME280;40756;-37.950;145.008;2023-08-30T10:56:53;101447.59;;;11.04;56.83
54870;BME280;40756;-37.950;145.008;2023-08-30T10:59:24;101449.96;;;10.90;56.59
54870;BME280;40756;-37.950;145.008;2023-08-30T11:01:55;101451.63;;;10.62;57.00
54870;BME280;40756;-37.950;145.008;2023-08-30T11:04:25;101449.58;;;11.14;56.33
54870;BME280;40756;-37.950;145.008;2023-08-30T11:06:56;101455.28;;;10.96;56.20
54870;BME280;40756;-37.950;145.008;2023-08-30T11:09:26;101456.99;;;11.47;54.53
54870;BME280;40756;-37.950;145.008;2023-08-30T11:11:55;101453.52;;;11.22;53.53
54870;BME280;40756;-37.950;145.008;2023-08-30T11:14:25;101455.34;;;11.14;52.56
54870;BME280;40756;-37.950;145.008;2023-08-30T11:16:56;101450.55;;;11.94;49.98
54870;BME280;40756;-37.950;145.008;2023-08-30T11:19:30;101452.85;;;11.16;50.83
54870;BME280;40756;-37.950;145.008;2023-08-30T11:21:59;101455.27;;;12.05;50.34
54870;BME280;40756;-37.950;145.008;2023-08-30T11:24:29;101455.34;;;12.28;51.03
54870;BME280;40756;-37.950;145.008;2023-08-30T11:26:59;101458.98;;;11.62;52.21
54870;BME280;40756;-37.950;145.008;2023-08-30T11:29:29;101464.38;;;11.53;53.58
54870;BME280;40756;-37.950;145.008;2023-08-30T11:31:59;101461.93;;;11.90;53.38
54870;BME280;40756;-37.950;145.008;2023-08-30T11:34:28;101474.08;;;10.57;56.28
54870;BME280;40756;-37.950;145.008;2023-08-30T11:37:00;101475.96;;;11.23;55.91
54870;BME280;40756;-37.950;145.008;2023-08-30T11:39:30;101481.05;;;11.00;56.09
54870;BME280;40756;-37.950;145.008;2023-08-30T11:42:00;101487.04;;;10.41;57.70
54870;BME280;40756;-37.950;145.008;2023-08-30T11:44:33;101487.46;;;10.69;57.95
54870;BME280;40756;-37.950;145.008;2023-08-30T11:47:02;101494.03;;;10.82;57.34
54870;BME280;40756;-37.950;145.008;2023-08-30T11:49:32;101501.19;;;10.74;58.07
54870;BME280;40756;-37.950;145.008;2023-08-30T11:52:02;101505.82;;;10.92;57.69
54870;BME280;40756;-37.950;145.008;2023-08-30T11:54:31;101507.39;;;10.44;58.24
54870;BME280;40756;-37.950;145.008;2023-08-30T11:57:01;101507.58;;;10.79;57.34
54870;BME280;40756;-37.950;145.008;2023-08-30T11:59:34;101508.98;;;11.02;57.76
54870;BME280;40756;-37.950;145.008;2023-08-30T12:02:04;101510.25;;;10.81;57.34
54870;BME280;40756;-37.950;145.008;2023-08-30T12:04:36;101511.30;;;9.88;59.17
54870;BME280;40756;-37.950;145.008;2023-08-30T12:07:08;101512.28;;;10.64;57.72
54870;BME280;40756;-37.950;145.008;2023-08-30T12:09:38;101510.13;;;10.42;58.24
54870;BME280;40756;-37.950;145.008;2023-08-30T12:12:11;101501.91;;;10.79;57.12
54870;BME280;40756;-37.950;145.008;2023-08-30T12:14:40;101502.07;;;11.19;56.74
54870;BME280;40756;-37.950;145.008;2023-08-30T12:17:10;101503.89;;;11.37;55.95
54870;BME280;40756;-37.950;145.008;2023-08-30T12:19:40;101506.10;;;11.55;55.77
54870;BME280;40756;-37.950;145.008;2023-08-30T12:22:10;101512.47;;;11.11;55.87
54870;BME280;40756;-37.950;145.008;2023-08-30T12:24:44;101516.56;;;10.69;56.67
54870;BME280;40756;-37.950;145.008;2023-08-30T12:27:14;101514.95;;;11.70;55.39
54870;BME280;40756;-37.950;145.008;2023-08-30T12:29:45;101516.40;;;10.99;56.93
54870;BME280;40756;-37.950;145.008;2023-08-30T12:32:14;101521.69;;;11.29;56.62
54870;BME280;40756;-37.950;145.008;2023-08-30T12:34:44;101520.87;;;10.78;56.55
54870;BME280;40756;-37.950;145.008;2023-08-30T12:37:13;101517.07;;;11.09;56.84
54870;BME280;40756;-37.950;145.008;2023-08-30T12:39:43;101525.03;;;10.17;57.58
54870;BME280;40756;-37.950;145.008;2023-08-30T12:42:13;101521.40;;;10.97;56.51
54870;BME280;40756;-37.950;145.008;2023-08-30T12:44:43;101519.87;;;11.20;56.46
54870;BME280;40756;-37.950;145.008;2023-08-30T12:47:12;101522.54;;;10.95;56.48
54870;BME280;40756;-37.950;145.008;2023-08-30T12:49:42;101519.93;;;11.42;56.13
54870;BME280;40756;-37.950;145.008;2023-08-30T12:52:12;101526.62;;;10.67;57.25
54870;BME280;40756;-37.950;145.008;2023-08-30T12:54:41;101529.18;;;10.65;56.62
54870;BME280;40756;-37.950;145.008;2023-08-30T12:57:11;101532.13;;;11.15;55.52
54870;BME280;40756;-37.950;145.008;2023-08-30T12:59:41;101537.75;;;10.55;55.87
54870;BME280;40756;-37.950;145.008;2023-08-30T13:02:11;101537.49;;;10.46;58.49
54870;BME280;40756;-37.950;145.008;2023-08-30T13:04:41;101541.00;;;10.37;56.84
54870;BME280;40756;-37.950;145.008;2023-08-30T13:07:10;101538.72;;;10.60;58.78